Impacts TAF Board INFO
FOR SITUATIONAL AWARENESS. NOT TO BE USED FOR FLIGHT PLANNING PURPOSES.
IDs:

KDCA - Washington/National, VA, US

Issued at 1720 UTC 21 Jun 2018
Updated at 1947 UTC 21 Jun 2018
Potential Impact None Slight Moderate High
Time1852Z 21/20Z 21/21Z 21/22Z 21/23Z 22/00Z 22/01Z 22/02Z 22/03Z 22/04Z 22/05Z 22/06Z 22/07Z 22/08Z>>
Type OBS PRVL PRVL PRVL PRVL PRVL PRVL PRVL PRVL PRVL PRVL PRVL PRVL PRVL
VIS 10 >6 >6 >6 >6 >6 >6 >6 >6 6 6 6 6 6
CIG 40 35 35 35 35 35 130 130 130 25 25 25 25 25
Cover BKN BKN BKN BKN BKN BKN OVC OVC OVC OVC OVC OVC OVC OVC
FltCat VFR VFR VFR VFR VFR VFR VFR VFR VFR MVFR MVFR MVFR MVFR MVFR
WX -- -- -- -- -- -- VCSH VCSH VCSH -SHRA -SHRA -SHRA -SHRA -SHRA
WDir 10 50 50 50 50 50 70 70 70 90 90 90 90 90
WSpd 9 7 7 7 7 7 4 4 4 4 4 4 4 4
WGst -- -- -- -- -- -- -- -- -- -- -- -- -- --

Raw TAF
KDCA 211720Z 2118/2224 05007KT P6SM BKN035 BKN200
  FM220100 07004KT P6SM VCSH SCT040 OVC130
  FM220400 09004KT 6SM -SHRA BKN025 OVC050
  FM220900 09008KT 5SM -SHRA SCT008 BKN015 OVC050
  FM221200 09010G18KT 5SM -SHRA SCT008 OVC015


Raw METAR
KDCA 211852Z 01009KT 10SM SCT033 BKN040 BKN065 BKN200 OVC250 28/21 A2978 RMK AO2 SLP085 T02830206
KDCA 211837Z 01008KT 10SM FEW029 BKN038 BKN055 BKN200 OVC250 29/21 A2978 RMK AO2 T02890211
KDCA 211807Z 36008KT 10SM SCT029 BKN038 BKN055 28/21 A2979 RMK AO2 T02780206
KDCA 211752Z 36010KT 10SM BKN029 BKN038 BKN060 28/21 A2979 RMK AO2 SLP086 T02780206 10289 20239 50001
KDCA 211742Z 35008KT 10SM BKN029 BKN035 OVC060 28/21 A2979 RMK AO2 T02830211
KDCA 211652Z 05010KT 10SM SCT025 BKN040 BKN070 27/22 A2979 RMK AO2 SLP087 T02720222

METAR Board
Radar Display
Forecast Discussion

FOR SITUATIONAL AWARENESS. NOT TO BE USED FOR FLIGHT PLANNING PURPOSES.